sensor_id;sensor_type;location;lat;lon;timestamp;temperature;humidity
71367;DHT22;60030;52.274;8.040;2022-07-26T00:00:23;21.30;93.30
71367;DHT22;60030;52.274;8.040;2022-07-26T00:02:50;21.30;93.70
71367;DHT22;60030;52.274;8.040;2022-07-26T00:05:17;21.30;93.70
71367;DHT22;60030;52.274;8.040;2022-07-26T00:07:45;21.30;93.90
71367;DHT22;60030;52.274;8.040;2022-07-26T00:10:12;21.20;94.00
71367;DHT22;60030;52.274;8.040;2022-07-26T00:12:40;21.20;94.20
71367;DHT22;60030;52.274;8.040;2022-07-26T00:15:10;21.20;94.50
71367;DHT22;60030;52.274;8.040;2022-07-26T00:17:37;21.10;94.80
71367;DHT22;60030;52.274;8.040;2022-07-26T00:20:05;21.20;94.80
71367;DHT22;60030;52.274;8.040;2022-07-26T00:22:32;21.10;95.10
71367;DHT22;60030;52.274;8.040;2022-07-26T00:25:00;21.10;95.50
71367;DHT22;60030;52.274;8.040;2022-07-26T00:27:27;21.10;95.60
71367;DHT22;60030;52.274;8.040;2022-07-26T00:29:54;21.10;95.70
71367;DHT22;60030;52.274;8.040;2022-07-26T00:32:22;21.10;95.80
71367;DHT22;60030;52.274;8.040;2022-07-26T00:34:50;21.00;96.20
71367;DHT22;60030;52.274;8.040;2022-07-26T00:37:17;21.10;96.20
71367;DHT22;60030;52.274;8.040;2022-07-26T00:39:45;21.10;96.20
71367;DHT22;60030;52.274;8.040;2022-07-26T00:42:12;21.10;96.50
71367;DHT22;60030;52.274;8.040;2022-07-26T00:44:41;21.20;96.60
71367;DHT22;60030;52.274;8.040;2022-07-26T00:47:09;21.10;96.80
71367;DHT22;60030;52.274;8.040;2022-07-26T00:49:37;21.00;97.20
71367;DHT22;60030;52.274;8.040;2022-07-26T00:52:06;21.00;97.40
71367;DHT22;60030;52.274;8.040;2022-07-26T00:54:33;21.00;97.50
71367;DHT22;60030;52.274;8.040;2022-07-26T00:57:02;20.90;97.90
71367;DHT22;60030;52.274;8.040;2022-07-26T00:59:29;20.90;98.10
71367;DHT22;60030;52.274;8.040;2022-07-26T01:01:56;20.90;98.30
71367;DHT22;60030;52.274;8.040;2022-07-26T01:04:23;20.90;98.60
71367;DHT22;60030;52.274;8.040;2022-07-26T01:06:52;20.90;98.90
71367;DHT22;60030;52.274;8.040;2022-07-26T01:09:19;20.70;99.50
71367;DHT22;60030;52.274;8.040;2022-07-26T01:11:46;20.50;99.90
71367;DHT22;60030;52.274;8.040;2022-07-26T01:14:13;20.60;99.90
71367;DHT22;60030;52.274;8.040;2022-07-26T01:16:41;20.60;99.90
71367;DHT22;60030;52.274;8.040;2022-07-26T01:19:08;20.70;99.90
71367;DHT22;60030;52.274;8.040;2022-07-26T01:21:37;20.70;99.90
71367;DHT22;60030;52.274;8.040;2022-07-26T01:24:05;20.70;99.90
71367;DHT22;60030;52.274;8.040;2022-07-26T01:26:32;20.60;99.90
71367;DHT22;60030;52.274;8.040;2022-07-26T01:28:59;20.60;99.90
71367;DHT22;60030;52.274;8.040;2022-07-26T01:31:27;20.60;99.90
71367;DHT22;60030;52.274;8.040;2022-07-26T01:33:54;20.60;99.90
71367;DHT22;60030;52.274;8.040;2022-07-26T01:36:21;20.60;99.90
71367;DHT22;60030;52.274;8.040;2022-07-26T01:38:49;20.50;99.90
71367;DHT22;60030;52.274;8.040;2022-07-26T01:41:16;20.50;99.90
71367;DHT22;60030;52.274;8.040;2022-07-26T01:43:43;20.50;99.90
71367;DHT22;60030;52.274;8.040;2022-07-26T01:46:11;20.50;99.90
71367;DHT22;60030;52.274;8.040;2022-07-26T01:48:39;20.70;99.90
71367;DHT22;60030;52.274;8.040;2022-07-26T01:51:06;20.70;99.90
71367;DHT22;60030;52.274;8.040;2022-07-26T01:53:33;20.60;99.90
71367;DHT22;60030;52.274;8.040;2022-07-26T01:56:01;20.40;99.90
71367;DHT22;60030;52.274;8.040;2022-07-26T01:58:29;20.60;99.90
71367;DHT22;60030;52.274;8.040;2022-07-26T02:00:56;20.60;99.90
71367;DHT22;60030;52.274;8.040;2022-07-26T02:03:26;20.60;99.90
71367;DHT22;60030;52.274;8.040;2022-07-26T02:05:53;20.70;99.90
71367;DHT22;60030;52.274;8.040;2022-07-26T02:08:20;20.60;99.90
71367;DHT22;60030;52.274;8.040;2022-07-26T02:10:47;20.60;99.90
71367;DHT22;60030;52.274;8.040;2022-07-26T02:13:28;20.50;99.90
71367;DHT22;60030;52.274;8.040;2022-07-26T02:15:56;20.40;99.90
71367;DHT22;60030;52.274;8.040;2022-07-26T02:18:25;20.40;99.90
71367;DHT22;60030;52.274;8.040;2022-07-26T02:20:53;20.30;99.90
71367;DHT22;60030;52.274;8.040;2022-07-26T02:23:21;20.40;99.90
71367;DHT22;60030;52.274;8.040;2022-07-26T02:25:48;20.30;99.90
71367;DHT22;60030;52.274;8.040;2022-07-26T02:28:15;20.40;99.90
71367;DHT22;60030;52.274;8.040;2022-07-26T02:30:44;20.40;99.90
71367;DHT22;60030;52.274;8.040;2022-07-26T02:33:11;20.40;99.90
71367;DHT22;60030;52.274;8.040;2022-07-26T02:35:39;20.50;99.90
71367;DHT22;60030;52.274;8.040;2022-07-26T02:38:08;20.60;99.90
71367;DHT22;60030;52.274;8.040;2022-07-26T02:40:37;20.40;99.90
71367;DHT22;60030;52.274;8.040;2022-07-26T02:43:05;20.20;99.90
71367;DHT22;60030;52.274;8.040;2022-07-26T02:45:33;20.50;99.90
71367;DHT22;60030;52.274;8.040;2022-07-26T02:48:01;20.40;99.90
71367;DHT22;60030;52.274;8.040;2022-07-26T02:50:29;20.40;99.90
71367;DHT22;60030;52.274;8.040;2022-07-26T02:52:56;20.20;99.90
71367;DHT22;60030;52.274;8.040;2022-07-26T02:55:25;20.20;99.90
71367;DHT22;60030;52.274;8.040;2022-07-26T02:57:53;20.30;99.90
71367;DHT22;60030;52.274;8.040;2022-07-26T03:00:23;20.30;99.90
71367;DHT22;60030;52.274;8.040;2022-07-26T03:02:51;20.40;99.90
71367;DHT22;60030;52.274;8.040;2022-07-26T03:05:20;20.40;99.90
71367;DHT22;60030;52.274;8.040;2022-07-26T03:07:47;20.30;99.90
71367;DHT22;60030;52.274;8.040;2022-07-26T03:10:14;20.30;99.90
71367;DHT22;60030;52.274;8.040;2022-07-26T03:12:41;20.40;99.90
71367;DHT22;60030;52.274;8.040;2022-07-26T03:15:10;20.40;99.90
71367;DHT22;60030;52.274;8.040;2022-07-26T03:17:37;20.40;99.90
71367;DHT22;60030;52.274;8.040;2022-07-26T03:20:05;20.30;99.90
71367;DHT22;60030;52.274;8.040;2022-07-26T03:22:34;20.20;99.90
71367;DHT22;60030;52.274;8.040;2022-07-26T03:25:01;20.20;99.90
71367;DHT22;60030;52.274;8.040;2022-07-26T03:27:29;20.30;99.90
71367;DHT22;60030;52.274;8.040;2022-07-26T03:29:56;20.30;99.90
71367;DHT22;60030;52.274;8.040;2022-07-26T03:32:23;20.40;99.90
71367;DHT22;60030;52.274;8.040;2022-07-26T03:34:50;20.40;99.90
71367;DHT22;60030;52.274;8.040;2022-07-26T03:37:17;20.30;99.90
71367;DHT22;60030;52.274;8.040;2022-07-26T03:39:45;20.30;99.90
71367;DHT22;60030;52.274;8.040;2022-07-26T03:42:13;20.30;99.90
71367;DHT22;60030;52.274;8.040;2022-07-26T03:44:40;20.20;99.90
71367;DHT22;60030;52.274;8.040;2022-07-26T03:47:08;20.20;99.90
71367;DHT22;60030;52.274;8.040;2022-07-26T03:49:35;20.30;99.90
71367;DHT22;60030;52.274;8.040;2022-07-26T03:52:02;20.20;99.90
71367;DHT22;60030;52.274;8.040;2022-07-26T03:54:30;20.20;99.90
71367;DHT22;60030;52.274;8.040;2022-07-26T03:56:58;20.10;99.90
71367;DHT22;60030;52.274;8.040;2022-07-26T03:59:24;20.20;99.90
71367;DHT22;60030;52.274;8.040;2022-07-26T04:01:52;20.30;99.90
71367;DHT22;60030;52.274;8.040;2022-07-26T04:04:19;20.40;99.90
71367;DHT22;60030;52.274;8.040;2022-07-26T04:06:46;20.30;99.90
71367;DHT22;60030;52.274;8.040;2022-07-26T04:09:14;20.40;99.90
71367;DHT22;60030;52.274;8.040;2022-07-26T04:11:42;20.30;99.90
71367;DHT22;60030;52.274;8.040;2022-07-26T04:14:10;20.20;99.90
71367;DHT22;60030;52.274;8.040;2022-07-26T04:16:38;20.20;99.90
71367;DHT22;60030;52.274;8.040;2022-07-26T04:19:05;20.10;99.90
71367;DHT22;60030;52.274;8.040;2022-07-26T04:21:32;20.10;99.90
71367;DHT22;60030;52.274;8.040;2022-07-26T04:23:59;19.90;99.90
71367;DHT22;60030;52.274;8.040;2022-07-26T04:26:26;20.10;99.90
71367;DHT22;60030;52.274;8.040;2022-07-26T04:28:54;20.10;99.90
71367;DHT22;60030;52.274;8.040;2022-07-26T04:31:23;20.00;99.90
71367;DHT22;60030;52.274;8.040;2022-07-26T04:33:51;20.10;99.90
71367;DHT22;60030;52.274;8.040;2022-07-26T04:36:18;20.30;99.90
71367;DHT22;60030;52.274;8.040;2022-07-26T04:38:46;20.30;99.90
71367;DHT22;60030;52.274;8.040;2022-07-26T04:41:13;20.20;99.90
71367;DHT22;60030;52.274;8.040;2022-07-26T04:43:40;20.30;99.90
71367;DHT22;60030;52.274;8.040;2022-07-26T04:46:07;20.20;99.90
71367;DHT22;60030;52.274;8.040;2022-07-26T04:48:37;20.10;99.90
71367;DHT22;60030;52.274;8.040;2022-07-26T04:51:04;20.30;99.90
71367;DHT22;60030;52.274;8.040;2022-07-26T04:53:31;20.10;99.90
71367;DHT22;60030;52.274;8.040;2022-07-26T04:55:59;20.10;99.90
71367;DHT22;60030;52.274;8.040;2022-07-26T04:58:26;20.30;99.90
71367;DHT22;60030;52.274;8.040;2022-07-26T05:00:53;20.30;99.90
71367;DHT22;60030;52.274;8.040;2022-07-26T05:03:20;20.30;99.90
71367;DHT22;60030;52.274;8.040;2022-07-26T05:05:51;20.10;99.90
71367;DHT22;60030;52.274;8.040;2022-07-26T05:08:18;20.30;99.90
71367;DHT22;60030;52.274;8.040;2022-07-26T05:10:45;20.30;99.90
71367;DHT22;60030;52.274;8.040;2022-07-26T05:13:12;20.30;99.90
71367;DHT22;60030;52.274;8.040;2022-07-26T05:15:40;20.10;99.90
71367;DHT22;60030;52.274;8.040;2022-07-26T05:18:08;20.20;99.90
71367;DHT22;60030;52.274;8.040;2022-07-26T05:20:36;20.30;99.90
71367;DHT22;60030;52.274;8.040;2022-07-26T05:23:05;20.40;99.90
71367;DHT22;60030;52.274;8.040;2022-07-26T05:25:32;20.40;99.90
71367;DHT22;60030;52.274;8.040;2022-07-26T05:28:00;20.50;99.90
71367;DHT22;60030;52.274;8.040;2022-07-26T05:30:27;20.20;99.90
71367;DHT22;60030;52.274;8.040;2022-07-26T05:32:55;20.40;99.90
71367;DHT22;60030;52.274;8.040;2022-07-26T05:35:22;20.50;99.90
71367;DHT22;60030;52.274;8.040;2022-07-26T05:37:49;20.50;99.90
71367;DHT22;60030;52.274;8.040;2022-07-26T05:40:17;20.60;99.90
71367;DHT22;60030;52.274;8.040;2022-07-26T05:42:45;20.40;99.90
71367;DHT22;60030;52.274;8.040;2022-07-26T05:45:12;20.40;99.90
71367;DHT22;60030;52.274;8.040;2022-07-26T05:47:39;20.40;99.90
71367;DHT22;60030;52.274;8.040;2022-07-26T05:50:07;20.30;99.90
71367;DHT22;60030;52.274;8.040;2022-07-26T05:52:34;20.40;99.90
71367;DHT22;60030;52.274;8.040;2022-07-26T05:55:01;20.60;99.90
71367;DHT22;60030;52.274;8.040;2022-07-26T05:57:29;20.50;99.90
71367;DHT22;60030;52.274;8.040;2022-07-26T05:59:57;20.60;99.90
71367;DHT22;60030;52.274;8.040;2022-07-26T06:02:24;20.60;99.90
71367;DHT22;60030;52.274;8.040;2022-07-26T06:04:51;20.60;99.90
71367;DHT22;60030;52.274;8.040;2022-07-26T06:07:18;20.70;99.90
71367;DHT22;60030;52.274;8.040;2022-07-26T06:09:45;20.90;99.90
71367;DHT22;60030;52.274;8.040;2022-07-26T06:12:12;21.00;99.90
71367;DHT22;60030;52.274;8.040;2022-07-26T06:14:40;21.00;99.90
71367;DHT22;60030;52.274;8.040;2022-07-26T06:17:07;21.00;99.90
71367;DHT22;60030;52.274;8.040;2022-07-26T06:19:34;20.90;99.90
71367;DHT22;60030;52.274;8.040;2022-07-26T06:22:02;20.70;99.90
71367;DHT22;60030;52.274;8.040;2022-07-26T06:24:29;20.80;99.90
71367;DHT22;60030;52.274;8.040;2022-07-26T06:26:56;20.90;99.90
71367;DHT22;60030;52.274;8.040;2022-07-26T06:29:23;21.00;99.90
71367;DHT22;60030;52.274;8.040;2022-07-26T06:31:51;20.90;99.90
71367;DHT22;60030;52.274;8.040;2022-07-26T06:34:18;20.90;99.90
71367;DHT22;60030;52.274;8.040;2022-07-26T06:36:45;20.90;99.90
71367;DHT22;60030;52.274;8.040;2022-07-26T06:39:13;21.00;99.90
71367;DHT22;60030;52.274;8.040;2022-07-26T06:41:40;21.00;99.90
71367;DHT22;60030;52.274;8.040;2022-07-26T06:44:07;21.10;99.90
71367;DHT22;60030;52.274;8.040;2022-07-26T06:46:34;21.20;99.90
71367;DHT22;60030;52.274;8.040;2022-07-26T06:49:03;21.30;99.90
71367;DHT22;60030;52.274;8.040;2022-07-26T06:51:30;21.30;99.90
71367;DHT22;60030;52.274;8.040;2022-07-26T06:53:57;21.20;99.90
71367;DHT22;60030;52.274;8.040;2022-07-26T06:56:24;21.20;99.90
71367;DHT22;60030;52.274;8.040;2022-07-26T06:58:51;21.20;99.90
71367;DHT22;60030;52.274;8.040;2022-07-26T07:01:20;21.20;99.90
71367;DHT22;60030;52.274;8.040;2022-07-26T07:03:47;21.30;99.90
71367;DHT22;60030;52.274;8.040;2022-07-26T07:06:15;21.30;99.90
71367;DHT22;60030;52.274;8.040;2022-07-26T07:08:42;21.20;99.90
71367;DHT22;60030;52.274;8.040;2022-07-26T07:11:10;21.30;99.90
71367;DHT22;60030;52.274;8.040;2022-07-26T07:13:37;21.20;99.90
71367;DHT22;60030;52.274;8.040;2022-07-26T07:16:04;21.00;99.90
71367;DHT22;60030;52.274;8.040;2022-07-26T07:18:32;21.20;99.90
71367;DHT22;60030;52.274;8.040;2022-07-26T07:20:59;21.40;99.90
71367;DHT22;60030;52.274;8.040;2022-07-26T07:23:27;21.40;99.90
71367;DHT22;60030;52.274;8.040;2022-07-26T07:25:54;21.30;99.90
71367;DHT22;60030;52.274;8.040;2022-07-26T07:28:21;21.00;99.90
71367;DHT22;60030;52.274;8.040;2022-07-26T07:30:48;21.00;99.90
71367;DHT22;60030;52.274;8.040;2022-07-26T07:33:16;20.80;99.90
71367;DHT22;60030;52.274;8.040;2022-07-26T07:35:43;20.80;99.90
71367;DHT22;60030;52.274;8.040;2022-07-26T07:38:10;20.70;99.90
71367;DHT22;60030;52.274;8.040;2022-07-26T07:40:39;20.80;99.90
71367;DHT22;60030;52.274;8.040;2022-07-26T07:43:06;21.00;99.90
71367;DHT22;60030;52.274;8.040;2022-07-26T07:45:33;21.20;99.90
71367;DHT22;60030;52.274;8.040;2022-07-26T07:48:00;21.00;99.90
71367;DHT22;60030;52.274;8.040;2022-07-26T07:50:27;20.70;99.90
71367;DHT22;60030;52.274;8.040;2022-07-26T07:52:54;21.00;99.90
71367;DHT22;60030;52.274;8.040;2022-07-26T07:55:21;21.30;99.90
71367;DHT22;60030;52.274;8.040;2022-07-26T07:57:50;21.50;99.90
71367;DHT22;60030;52.274;8.040;2022-07-26T08:00:17;21.50;99.90
71367;DHT22;60030;52.274;8.040;2022-07-26T08:02:45;21.20;99.90
71367;DHT22;60030;52.274;8.040;2022-07-26T08:05:13;21.30;99.90
71367;DHT22;60030;52.274;8.040;2022-07-26T08:07:40;21.30;99.90
71367;DHT22;60030;52.274;8.040;2022-07-26T08:10:08;21.10;99.90
71367;DHT22;60030;52.274;8.040;2022-07-26T08:12:35;21.00;99.90
71367;DHT22;60030;52.274;8.040;2022-07-26T08:15:04;21.00;99.90
71367;DHT22;60030;52.274;8.040;2022-07-26T08:17:32;21.30;99.90
71367;DHT22;60030;52.274;8.040;2022-07-26T08:19:59;21.50;99.90
71367;DHT22;60030;52.274;8.040;2022-07-26T08:22:26;21.60;99.90
71367;DHT22;60030;52.274;8.040;2022-07-26T08:24:53;21.60;99.90
71367;DHT22;60030;52.274;8.040;2022-07-26T08:27:20;21.90;99.90
71367;DHT22;60030;52.274;8.040;2022-07-26T08:29:48;22.00;99.90
71367;DHT22;60030;52.274;8.040;2022-07-26T08:32:16;22.30;99.90
71367;DHT22;60030;52.274;8.040;2022-07-26T08:34:43;22.00;99.90
71367;DHT22;60030;52.274;8.040;2022-07-26T08:37:10;21.90;99.90
71367;DHT22;60030;52.274;8.040;2022-07-26T08:39:37;21.80;99.90
71367;DHT22;60030;52.274;8.040;2022-07-26T08:42:12;21.90;99.90
71367;DHT22;60030;52.274;8.040;2022-07-26T08:44:41;22.10;99.90
71367;DHT22;60030;52.274;8.040;2022-07-26T08:47:10;22.60;99.90
71367;DHT22;60030;52.274;8.040;2022-07-26T08:49:38;22.60;99.90
71367;DHT22;60030;52.274;8.040;2022-07-26T08:52:06;22.80;99.90
71367;DHT22;60030;52.274;8.040;2022-07-26T08:54:34;22.90;99.90
71367;DHT22;60030;52.274;8.040;2022-07-26T08:57:01;23.00;99.90
71367;DHT22;60030;52.274;8.040;2022-07-26T08:59:28;23.00;99.90
71367;DHT22;60030;52.274;8.040;2022-07-26T09:01:58;22.90;99.90
71367;DHT22;60030;52.274;8.040;2022-07-26T09:04:27;22.80;99.90
71367;DHT22;60030;52.274;8.040;2022-07-26T09:06:58;22.50;99.90
71367;DHT22;60030;52.274;8.040;2022-07-26T09:09:26;22.10;99.90
71367;DHT22;60030;52.274;8.040;2022-07-26T09:11:54;21.70;99.90
71367;DHT22;60030;52.274;8.040;2022-07-26T09:14:21;21.60;99.90
71367;DHT22;60030;52.274;8.040;2022-07-26T09:16:56;21.60;99.90
71367;DHT22;60030;52.274;8.040;2022-07-26T09:19:25;21.80;99.90
71367;DHT22;60030;52.274;8.040;2022-07-26T09:21:53;21.60;99.90
71367;DHT22;60030;52.274;8.040;2022-07-26T09:24:34;21.80;99.90
71367;DHT22;60030;52.274;8.040;2022-07-26T09:27:04;21.90;99.90
71367;DHT22;60030;52.274;8.040;2022-07-26T09:29:41;22.00;99.90
71367;DHT22;60030;52.274;8.040;2022-07-26T09:32:11;22.00;99.90
71367;DHT22;60030;52.274;8.040;2022-07-26T09:34:41;22.10;99.90
71367;DHT22;60030;52.274;8.040;2022-07-26T09:37:10;22.10;99.90
71367;DHT22;60030;52.274;8.040;2022-07-26T09:39:55;22.00;99.90
71367;DHT22;60030;52.274;8.040;2022-07-26T09:42:23;22.40;99.90
71367;DHT22;60030;52.274;8.040;2022-07-26T09:44:51;22.80;99.90
71367;DHT22;60030;52.274;8.040;2022-07-26T09:47:19;22.70;99.90
71367;DHT22;60030;52.274;8.040;2022-07-26T09:49:46;23.00;99.90
71367;DHT22;60030;52.274;8.040;2022-07-26T09:52:15;22.80;99.90
71367;DHT22;60030;52.274;8.040;2022-07-26T09:54:43;22.70;99.90
71367;DHT22;60030;52.274;8.040;2022-07-26T09:57:16;22.50;99.90
71367;DHT22;60030;52.274;8.040;2022-07-26T09:59:44;22.70;99.90
71367;DHT22;60030;52.274;8.040;2022-07-26T10:02:12;22.30;99.90
71367;DHT22;60030;52.274;8.040;2022-07-26T10:04:40;22.40;99.90
71367;DHT22;60030;52.274;8.040;2022-07-26T10:07:07;22.40;99.90
71367;DHT22;60030;52.274;8.040;2022-07-26T10:09:40;22.60;99.90
71367;DHT22;60030;52.274;8.040;2022-07-26T10:12:12;22.80;99.90
71367;DHT22;60030;52.274;8.040;2022-07-26T10:14:43;22.80;99.90
71367;DHT22;60030;52.274;8.040;2022-07-26T10:17:44;22.50;99.90
71367;DHT22;60030;52.274;8.040;2022-07-26T10:20:39;22.70;99.90
71367;DHT22;60030;52.274;8.040;2022-07-26T10:23:41;22.70;99.90
71367;DHT22;60030;52.274;8.040;2022-07-26T10:26:31;22.90;99.90
71367;DHT22;60030;52.274;8.040;2022-07-26T10:29:18;23.00;99.90
71367;DHT22;60030;52.274;8.040;2022-07-26T10:31:48;23.10;99.90
71367;DHT22;60030;52.274;8.040;2022-07-26T10:34:30;23.20;99.90
71367;DHT22;60030;52.274;8.040;2022-07-26T10:36:58;23.50;99.90
71367;DHT22;60030;52.274;8.040;2022-07-26T10:39:25;23.80;99.90
71367;DHT22;60030;52.274;8.040;2022-07-26T10:41:57;23.70;99.90
71367;DHT22;60030;52.274;8.040;2022-07-26T10:44:26;23.80;99.90
71367;DHT22;60030;52.274;8.040;2022-07-26T10:47:00;24.00;99.90
71367;DHT22;60030;52.274;8.040;2022-07-26T10:49:30;23.70;99.90
71367;DHT22;60030;52.274;8.040;2022-07-26T10:52:05;23.70;99.90
71367;DHT22;60030;52.274;8.040;2022-07-26T10:55:03;23.50;99.90
71367;DHT22;60030;52.274;8.040;2022-07-26T10:57:32;23.60;99.90
71367;DHT22;60030;52.274;8.040;2022-07-26T11:00:03;23.60;99.90
71367;DHT22;60030;52.274;8.040;2022-07-26T11:02:34;23.10;99.90
71367;DHT22;60030;52.274;8.040;2022-07-26T11:05:03;22.60;99.90
71367;DHT22;60030;52.274;8.040;2022-07-26T11:07:30;22.50;99.90
71367;DHT22;60030;52.274;8.040;2022-07-26T11:09:59;22.60;99.90
71367;DHT22;60030;52.274;8.040;2022-07-26T11:12:26;22.50;99.90
71367;DHT22;60030;52.274;8.040;2022-07-26T11:14:54;22.60;99.90
71367;DHT22;60030;52.274;8.040;2022-07-26T11:17:24;22.70;99.90
71367;DHT22;60030;52.274;8.040;2022-07-26T11:19:53;22.80;99.90
71367;DHT22;60030;52.274;8.040;2022-07-26T11:22:21;22.50;99.90
71367;DHT22;60030;52.274;8.040;2022-07-26T11:24:56;22.30;99.90
71367;DHT22;60030;52.274;8.040;2022-07-26T11:27:23;22.50;99.90
71367;DHT22;60030;52.274;8.040;2022-07-26T11:29:50;22.60;99.90
71367;DHT22;60030;52.274;8.040;2022-07-26T11:32:20;22.50;99.90
71367;DHT22;60030;52.274;8.040;2022-07-26T11:34:58;22.20;99.90
71367;DHT22;60030;52.274;8.040;2022-07-26T11:37:25;22.30;99.90
71367;DHT22;60030;52.274;8.040;2022-07-26T11:39:53;22.40;99.90
71367;DHT22;60030;52.274;8.040;2022-07-26T11:42:20;22.50;99.90
71367;DHT22;60030;52.274;8.040;2022-07-26T11:44:48;22.80;99.90
71367;DHT22;60030;52.274;8.040;2022-07-26T11:47:16;23.00;99.90
71367;DHT22;60030;52.274;8.040;2022-07-26T11:49:45;23.40;99.90
71367;DHT22;60030;52.274;8.040;2022-07-26T11:52:14;23.60;99.90
71367;DHT22;60030;52.274;8.040;2022-07-26T11:54:46;23.70;99.50
71367;DHT22;60030;52.274;8.040;2022-07-26T11:57:14;24.10;98.70
71367;DHT22;60030;52.274;8.040;2022-07-26T11:59:44;24.60;98.00
71367;DHT22;60030;52.274;8.040;2022-07-26T12:02:13;24.60;96.30
71367;DHT22;60030;52.274;8.040;2022-07-26T12:04:41;24.10;97.20
71367;DHT22;60030;52.274;8.040;2022-07-26T12:07:11;23.60;98.20
71367;DHT22;60030;52.274;8.040;2022-07-26T12:09:40;23.30;98.60
71367;DHT22;60030;52.274;8.040;2022-07-26T12:12:09;22.80;99.60
71367;DHT22;60030;52.274;8.040;2022-07-26T12:14:38;22.60;99.90
71367;DHT22;60030;52.274;8.040;2022-07-26T12:17:13;22.50;99.90
71367;DHT22;60030;52.274;8.040;2022-07-26T12:19:40;22.50;99.90
71367;DHT22;60030;52.274;8.040;2022-07-26T12:22:08;22.40;99.90
71367;DHT22;60030;52.274;8.040;2022-07-26T12:24:41;22.10;99.90
71367;DHT22;60030;52.274;8.040;2022-07-26T12:27:12;22.00;99.90
71367;DHT22;60030;52.274;8.040;2022-07-26T12:29:41;22.00;99.90
71367;DHT22;60030;52.274;8.040;2022-07-26T12:32:11;21.90;99.90
71367;DHT22;60030;52.274;8.040;2022-07-26T12:34:40;21.80;99.90
71367;DHT22;60030;52.274;8.040;2022-07-26T12:37:13;21.90;99.90
71367;DHT22;60030;52.274;8.040;2022-07-26T12:39:58;21.80;99.90
71367;DHT22;60030;52.274;8.040;2022-07-26T12:42:28;21.80;99.90
71367;DHT22;60030;52.274;8.040;2022-07-26T12:44:56;21.90;99.90
71367;DHT22;60030;52.274;8.040;2022-07-26T12:47:24;22.20;99.90
71367;DHT22;60030;52.274;8.040;2022-07-26T12:49:51;22.30;99.90
71367;DHT22;60030;52.274;8.040;2022-07-26T12:52:20;22.50;99.90
71367;DHT22;60030;52.274;8.040;2022-07-26T12:54:50;22.80;99.70
71367;DHT22;60030;52.274;8.040;2022-07-26T12:57:18;22.30;99.60
71367;DHT22;60030;52.274;8.040;2022-07-26T12:59:46;22.40;99.90
71367;DHT22;60030;52.274;8.040;2022-07-26T13:02:14;22.80;99.20
71367;DHT22;60030;52.274;8.040;2022-07-26T13:04:42;23.20;98.60
71367;DHT22;60030;52.274;8.040;2022-07-26T13:07:09;23.50;97.40
71367;DHT22;60030;52.274;8.040;2022-07-26T13:09:37;23.80;96.40
71367;DHT22;60030;52.274;8.040;2022-07-26T13:12:06;23.90;96.10
71367;DHT22;60030;52.274;8.040;2022-07-26T13:14:36;23.90;95.90
71367;DHT22;60030;52.274;8.040;2022-07-26T13:17:04;23.70;96.20
71367;DHT22;60030;52.274;8.040;2022-07-26T13:19:32;23.50;95.70
71367;DHT22;60030;52.274;8.040;2022-07-26T13:22:00;23.20;95.40
71367;DHT22;60030;52.274;8.040;2022-07-26T13:24:29;22.80;95.30
71367;DHT22;60030;52.274;8.040;2022-07-26T13:26:57;22.50;96.20
71367;DHT22;60030;52.274;8.040;2022-07-26T13:29:26;22.50;96.20
71367;DHT22;60030;52.274;8.040;2022-07-26T13:31:53;22.60;96.60
71367;DHT22;60030;52.274;8.040;2022-07-26T13:34:21;22.40;97.00
71367;DHT22;60030;52.274;8.040;2022-07-26T13:36:49;22.40;97.00
71367;DHT22;60030;52.274;8.040;2022-07-26T13:39:17;22.50;97.00
71367;DHT22;60030;52.274;8.040;2022-07-26T13:41:44;22.40;97.10
71367;DHT22;60030;52.274;8.040;2022-07-26T13:44:11;22.20;97.20
71367;DHT22;60030;52.274;8.040;2022-07-26T13:46:40;22.00;98.20
71367;DHT22;60030;52.274;8.040;2022-07-26T13:49:07;21.80;98.50
71367;DHT22;60030;52.274;8.040;2022-07-26T13:51:35;21.90;98.50
71367;DHT22;60030;52.274;8.040;2022-07-26T13:54:22;22.00;98.40
71367;DHT22;60030;52.274;8.040;2022-07-26T13:56:49;22.00;98.10
71367;DHT22;60030;52.274;8.040;2022-07-26T13:59:17;22.00;98.40
71367;DHT22;60030;52.274;8.040;2022-07-26T14:01:46;22.40;97.40
71367;DHT22;60030;52.274;8.040;2022-07-26T14:04:13;22.50;96.90
71367;DHT22;60030;52.274;8.040;2022-07-26T14:06:40;23.00;96.70
71367;DHT22;60030;52.274;8.040;2022-07-26T14:09:08;23.30;95.80
71367;DHT22;60030;52.274;8.040;2022-07-26T14:11:35;23.90;95.00
71367;DHT22;60030;52.274;8.040;2022-07-26T14:14:03;24.10;94.30
71367;DHT22;60030;52.274;8.040;2022-07-26T14:16:30;23.90;93.80
71367;DHT22;60030;52.274;8.040;2022-07-26T14:18:59;23.80;94.60
71367;DHT22;60030;52.274;8.040;2022-07-26T14:21:27;23.60;95.40
71367;DHT22;60030;52.274;8.040;2022-07-26T14:23:55;23.60;94.60
71367;DHT22;60030;52.274;8.040;2022-07-26T14:26:24;23.80;94.40
71367;DHT22;60030;52.274;8.040;2022-07-26T14:28:51;24.20;93.30
71367;DHT22;60030;52.274;8.040;2022-07-26T14:31:18;24.30;92.60
71367;DHT22;60030;52.274;8.040;2022-07-26T14:33:46;24.40;92.30
71367;DHT22;60030;52.274;8.040;2022-07-26T14:36:14;24.00;92.60
71367;DHT22;60030;52.274;8.040;2022-07-26T14:38:42;24.10;92.10
71367;DHT22;60030;52.274;8.040;2022-07-26T14:41:10;24.10;92.30
71367;DHT22;60030;52.274;8.040;2022-07-26T14:43:37;24.50;91.00
71367;DHT22;60030;52.274;8.040;2022-07-26T14:46:07;24.40;90.80
71367;DHT22;60030;52.274;8.040;2022-07-26T14:48:34;24.20;91.20
71367;DHT22;60030;52.274;8.040;2022-07-26T14:51:01;24.10;91.30
71367;DHT22;60030;52.274;8.040;2022-07-26T14:53:30;23.90;91.60
71367;DHT22;60030;52.274;8.040;2022-07-26T14:55:57;23.80;92.00
71367;DHT22;60030;52.274;8.040;2022-07-26T14:58:24;23.60;92.00
71367;DHT22;60030;52.274;8.040;2022-07-26T15:00:52;23.50;92.00
71367;DHT22;60030;52.274;8.040;2022-07-26T15:03:19;23.50;92.50
71367;DHT22;60030;52.274;8.040;2022-07-26T15:05:46;23.40;92.20
71367;DHT22;60030;52.274;8.040;2022-07-26T15:08:13;23.30;92.30
71367;DHT22;60030;52.274;8.040;2022-07-26T15:10:42;22.90;92.60
71367;DHT22;60030;52.274;8.040;2022-07-26T15:13:09;22.80;93.30
71367;DHT22;60030;52.274;8.040;2022-07-26T15:15:38;23.00;93.20
71367;DHT22;60030;52.274;8.040;2022-07-26T15:18:05;23.10;93.00
71367;DHT22;60030;52.274;8.040;2022-07-26T15:20:32;23.00;93.20
71367;DHT22;60030;52.274;8.040;2022-07-26T15:23:00;22.90;93.40
71367;DHT22;60030;52.274;8.040;2022-07-26T15:25:27;22.90;93.10
71367;DHT22;60030;52.274;8.040;2022-07-26T15:27:55;22.80;93.10
71367;DHT22;60030;52.274;8.040;2022-07-26T15:30:22;22.80;93.50
71367;DHT22;60030;52.274;8.040;2022-07-26T15:32:50;22.80;93.30
71367;DHT22;60030;52.274;8.040;2022-07-26T15:35:17;22.70;93.50
71367;DHT22;60030;52.274;8.040;2022-07-26T15:37:44;23.10;93.00